Strona główna
METAR-TAF:

METAR-TAF

Lotnisko :

Istres, Francja

Szerokość geograficzna: 43-31N, Długość geograficzna: 004-56E, wysokość: 23 m

Aktualna obserwacja pogody

Raport powstał 33 minut temu, godzina 11:30 UTC
Wiatr 22 kt od południowy wschód
Temperatura 16°C
Wilgotność 72%
Ciśnienie 1014 hPa
Widzialność 10 km lub więcej
Mało chmury na wysokości 2700 ft
Zachmurzenie całkowite na wysokości 4600 ft

METAR: LFMI 161130Z AUTO 14022KT 9999 FEW027 OVC046 16/11 Q1014 BECMG 16015G25KT

czas: 13:03 (12:03 UTC)

Prognoza

Raport powstał 4 godziny i 3 minut temu, godzina 08:00 UTC
Prognoza ważna od 16 godzina 09 UTC do 17 godzina 09 UTC
Wiatr 15 kt od południowo-południowy wschód w porywach dochodzący do 25 kt
Widzialność 10 km lub więcej
Mało chmury na wysokości 2500 ft
Przerywane chmury na wysokości 3000 ft

TAF: LFMI 160800Z 1609/1709 16015G25KT 9999 FEW025 BKN030

Obserwacja i prognoza pogody dla ponad 4000 lotnisk (raport METAR i TAF).

Dostępne stacje oznaczono żółtymi i czerwonymi punktami na mapie.

Najedź kursorem aby zobaczyć nazwę stacji.

Kliknij aby zobaczyć obserwacje i prognozy pogody.

Aby zmienić mapę: kliknij na zielony przycisk z czarnym krzyżykiem, aby powiększyć; na zielony przycisk z myślnikiem, aby pomniejszyć; na zielone strzałki, aby przejść do map sąsiednich.


METAR-TAF: